createdAt,value
2024-01-20T00:01:29.412Z,100.00
2024-01-20T00:03:59.438Z,100.00
2024-01-20T00:06:27.142Z,100.00
2024-01-20T00:08:57.440Z,100.00
2024-01-20T00:11:25.206Z,100.00
2024-01-20T00:13:53.752Z,100.00
2024-01-20T00:16:21.877Z,100.00
2024-01-20T00:18:51.533Z,100.00
2024-01-20T00:21:20.772Z,100.00
2024-01-20T00:23:48.751Z,100.00
2024-01-20T00:26:17.615Z,100.00
2024-01-20T00:28:45.694Z,100.00
2024-01-20T00:31:13.968Z,100.00
2024-01-20T00:33:42.713Z,100.00
2024-01-20T00:36:10.942Z,100.00
2024-01-20T00:38:43.485Z,100.00
2024-01-20T00:41:12.543Z,100.00
2024-01-20T00:43:41.520Z,100.00
2024-01-20T00:46:10.034Z,100.00
2024-01-20T00:48:38.494Z,100.00
2024-01-20T00:51:06.592Z,100.00
2024-01-20T00:53:34.487Z,100.00
2024-01-20T00:56:03.917Z,100.00
2024-01-20T00:58:32.509Z,100.00
2024-01-20T01:01:00.280Z,100.00
2024-01-20T01:03:28.050Z,100.00
2024-01-20T01:05:56.548Z,100.00
2024-01-20T01:08:24.620Z,100.00
2024-01-20T01:10:52.526Z,100.00
2024-01-20T01:13:21.585Z,100.00
2024-01-20T01:15:53.966Z,100.00
2024-01-20T01:18:22.001Z,100.00
2024-01-20T01:20:50.558Z,100.00
2024-01-20T01:23:18.358Z,100.00
2024-01-20T01:25:52.550Z,100.00
2024-01-20T01:28:21.718Z,100.00
2024-01-20T01:30:49.839Z,100.00
2024-01-20T01:33:19.009Z,100.00
2024-01-20T01:35:47.115Z,100.00
2024-01-20T01:38:15.640Z,100.00
2024-01-20T01:40:43.350Z,100.00
2024-01-20T01:43:11.554Z,100.00
2024-01-20T01:45:41.276Z,100.00
2024-01-20T01:48:09.597Z,100.00
2024-01-20T01:50:37.762Z,100.00
2024-01-20T01:53:06.656Z,100.00
2024-01-20T01:55:35.947Z,100.00
2024-01-20T01:58:05.554Z,100.00
2024-01-20T02:00:33.526Z,100.00
2024-01-20T02:03:03.592Z,100.00
2024-01-20T02:05:31.253Z,100.00
2024-01-20T02:08:00.548Z,100.00
2024-01-20T02:10:28.440Z,100.00
2024-01-20T02:12:56.554Z,100.00
2024-01-20T02:15:25.311Z,100.00
2024-01-20T02:17:53.674Z,100.00
2024-01-20T02:20:24.153Z,100.00
2024-01-20T02:22:53.266Z,100.00
2024-01-20T02:25:21.607Z,100.00
2024-01-20T02:27:49.425Z,100.00
2024-01-20T02:30:17.142Z,100.00
2024-01-20T02:32:45.684Z,100.00
2024-01-20T02:35:13.508Z,100.00
2024-01-20T02:37:41.608Z,100.00
2024-01-20T02:40:11.404Z,100.00
2024-01-20T02:42:39.098Z,100.00
2024-01-20T02:45:08.671Z,100.00
2024-01-20T02:47:36.431Z,100.00
2024-01-20T02:50:04.717Z,100.00
2024-01-20T02:52:32.440Z,100.00
2024-01-20T02:55:00.695Z,100.00
2024-01-20T02:57:29.887Z,100.00
2024-01-20T02:59:58.646Z,100.00
2024-01-20T03:02:26.352Z,100.00
2024-01-20T03:04:54.633Z,100.00
2024-01-20T03:07:22.322Z,100.00
2024-01-20T03:09:50.632Z,100.00
2024-01-20T03:12:18.305Z,100.00
2024-01-20T03:14:47.626Z,100.00
2024-01-20T03:17:15.281Z,100.00
2024-01-20T03:19:44.007Z,100.00
2024-01-20T03:22:11.748Z,100.00
2024-01-20T03:24:39.735Z,100.00
2024-01-20T03:27:07.551Z,100.00
2024-01-20T03:29:35.660Z,100.00
2024-01-20T03:32:05.041Z,100.00
2024-01-20T03:34:33.014Z,100.00
2024-01-20T03:37:01.666Z,100.00
2024-01-20T03:39:29.373Z,100.00
2024-01-20T03:41:57.693Z,100.00
2024-01-20T03:44:25.703Z,100.00
2024-01-20T03:46:53.683Z,100.00
2024-01-20T03:49:22.888Z,100.00
2024-01-20T03:51:50.855Z,100.00
2024-01-20T03:54:18.569Z,100.00
2024-01-20T03:56:46.690Z,100.00
2024-01-20T03:59:14.332Z,100.00
2024-01-20T04:01:42.683Z,100.00
2024-01-20T04:04:10.916Z,100.00
2024-01-20T04:06:40.724Z,100.00
2024-01-20T04:09:08.583Z,100.00
2024-01-20T04:11:36.382Z,100.00
2024-01-20T04:14:04.700Z,100.00
2024-01-20T04:16:32.695Z,100.00
2024-01-20T04:19:00.870Z,100.00
2024-01-20T04:21:28.697Z,100.00
2024-01-20T04:23:57.817Z,100.00
2024-01-20T04:26:25.729Z,100.00
2024-01-20T04:28:53.390Z,100.00
2024-01-20T04:31:21.168Z,100.00
2024-01-20T04:33:49.796Z,100.00
2024-01-20T04:36:17.529Z,100.00
2024-01-20T04:38:45.361Z,100.00
2024-01-20T04:41:14.706Z,100.00
2024-01-20T04:43:43.179Z,100.00
2024-01-20T04:46:11.725Z,100.00
2024-01-20T04:48:39.516Z,100.00
2024-01-20T04:51:07.739Z,100.00
2024-01-20T04:53:35.763Z,100.00
2024-01-20T04:56:04.698Z,100.00
2024-01-20T04:58:34.757Z,100.00
2024-01-20T05:01:02.735Z,100.00
2024-01-20T05:03:30.779Z,100.00
2024-01-20T05:05:58.563Z,100.00
2024-01-20T05:08:27.745Z,100.00
2024-01-20T05:10:55.423Z,100.00
2024-01-20T05:13:23.342Z,100.00
2024-01-20T05:15:54.763Z,100.00
2024-01-20T05:18:22.915Z,100.00
2024-01-20T05:20:50.739Z,100.00
2024-01-20T05:23:19.764Z,100.00
2024-01-20T05:25:47.787Z,100.00
2024-01-20T05:31:33.273Z,100.00
2024-01-20T05:34:01.352Z,100.00
2024-01-20T05:36:30.352Z,100.00
2024-01-20T05:38:58.814Z,100.00
2024-01-20T05:41:26.536Z,100.00
2024-01-20T05:43:55.098Z,100.00
2024-01-20T05:46:22.797Z,100.00
2024-01-20T05:48:53.041Z,100.00
2024-01-20T05:51:20.884Z,100.00
2024-01-20T05:53:48.581Z,100.00
2024-01-20T05:56:17.773Z,100.00
2024-01-20T05:58:45.568Z,100.00
2024-01-20T06:01:14.843Z,100.00
2024-01-20T06:03:42.803Z,100.00
2024-01-20T06:06:12.520Z,100.00
2024-01-20T06:08:40.937Z,100.00
2024-01-20T06:11:08.585Z,100.00
2024-01-20T06:13:36.821Z,100.00
2024-01-20T06:16:04.793Z,100.00
2024-01-20T06:18:32.915Z,100.00
2024-01-20T06:21:01.576Z,100.00
2024-01-20T06:23:30.739Z,100.00
2024-01-20T06:25:59.862Z,100.00
2024-01-20T06:28:27.590Z,100.00
2024-01-20T06:30:55.826Z,100.00
2024-01-20T06:33:23.676Z,100.00
2024-01-20T06:35:52.989Z,100.00
2024-01-20T06:38:21.028Z,100.00
2024-01-20T06:40:50.050Z,100.00
2024-01-20T06:43:17.865Z,100.00
2024-01-20T06:45:47.213Z,100.00
2024-01-20T06:48:14.991Z,100.00
2024-01-20T06:50:45.868Z,100.00
2024-01-20T06:53:13.589Z,100.00
2024-01-20T06:55:41.273Z,100.00
2024-01-20T06:58:10.456Z,100.00
2024-01-20T07:00:38.926Z,100.00
2024-01-20T07:03:06.755Z,100.00
2024-01-20T07:05:34.886Z,100.00
2024-01-20T07:08:03.153Z,100.00
2024-01-20T07:10:30.911Z,100.00
2024-01-20T07:12:58.568Z,100.00
2024-01-20T07:15:27.927Z,100.00
2024-01-20T07:17:57.122Z,100.00
2024-01-20T07:20:25.874Z,100.00
2024-01-20T07:22:53.621Z,100.00
2024-01-20T07:25:21.282Z,100.00
2024-01-20T07:27:49.901Z,100.00
2024-01-20T07:30:17.813Z,100.00
2024-01-20T07:32:47.907Z,100.00
2024-01-20T07:35:15.642Z,100.00
2024-01-20T07:37:44.063Z,100.00
2024-01-20T07:40:12.526Z,100.00
2024-01-20T07:42:42.092Z,100.00
2024-01-20T07:45:10.653Z,100.00
2024-01-20T07:47:38.419Z,100.00
2024-01-20T07:52:55.931Z,100.00
2024-01-20T07:55:23.621Z,100.00
2024-01-20T07:57:52.000Z,100.00
2024-01-20T08:00:20.377Z,100.00
2024-01-20T08:02:48.938Z,100.00
2024-01-20T08:05:16.812Z,100.00
2024-01-20T08:07:44.978Z,100.00
2024-01-20T08:10:14.429Z,100.00
2024-01-20T08:12:42.718Z,100.00
2024-01-20T08:15:11.948Z,100.00
2024-01-20T08:17:41.403Z,100.00
2024-01-20T08:20:11.746Z,100.00
2024-01-20T08:22:39.974Z,100.00
2024-01-20T08:25:09.534Z,100.00
2024-01-20T08:27:38.957Z,100.00
2024-01-20T08:30:07.989Z,100.00
2024-01-20T08:32:36.078Z,100.00
2024-01-20T08:35:03.959Z,100.00
2024-01-20T08:37:31.963Z,100.00
2024-01-20T08:39:59.667Z,100.00
2024-01-20T08:42:28.018Z,100.00
2024-01-20T08:44:57.159Z,100.00
2024-01-20T08:47:24.876Z,100.00
2024-01-20T08:49:53.976Z,100.00
2024-01-20T08:52:21.727Z,100.00
2024-01-20T08:54:49.443Z,100.00
2024-01-20T08:57:18.024Z,100.00
2024-01-20T08:59:45.686Z,100.00
2024-01-20T09:02:14.985Z,100.00
2024-01-20T09:04:42.681Z,100.00
2024-01-20T09:07:11.021Z,100.00
2024-01-20T09:09:38.803Z,100.00
2024-01-20T09:12:08.007Z,100.00
2024-01-20T09:14:37.539Z,100.00
2024-01-20T09:17:05.515Z,100.00
2024-01-20T09:19:35.168Z,100.00
2024-01-20T09:22:02.868Z,100.00
2024-01-20T09:24:30.536Z,100.00
2024-01-20T09:26:59.022Z,100.00
2024-01-20T09:29:26.725Z,100.00
2024-01-20T09:31:56.279Z,100.00
2024-01-20T09:34:24.040Z,100.00
2024-01-20T09:36:53.996Z,100.00
2024-01-20T09:39:21.761Z,100.00
2024-01-20T09:41:50.005Z,100.00
2024-01-20T09:44:17.750Z,100.00
2024-01-20T09:46:46.021Z,100.00
2024-01-20T09:49:13.861Z,100.00
2024-01-20T09:51:47.786Z,100.00
2024-01-20T09:54:18.061Z,100.00
2024-01-20T09:56:45.719Z,100.00
2024-01-20T09:59:15.155Z,100.00
2024-01-20T10:01:44.130Z,100.00
2024-01-20T10:04:11.996Z,100.00
2024-01-20T10:06:40.095Z,100.00
2024-01-20T10:09:07.866Z,100.00
2024-01-20T10:11:37.040Z,100.00
2024-01-20T10:14:05.027Z,100.00
2024-01-20T10:16:39.174Z,100.00
2024-01-20T10:19:07.038Z,100.00
2024-01-20T10:21:40.448Z,100.00
2024-01-20T10:24:09.087Z,100.00
2024-01-20T10:26:44.860Z,100.00
2024-01-20T10:29:12.522Z,100.00
2024-01-20T10:31:41.057Z,100.00
2024-01-20T10:34:08.951Z,100.00
2024-01-20T10:36:37.180Z,100.00
2024-01-20T10:39:07.010Z,100.00
2024-01-20T10:41:37.070Z,100.00
2024-01-20T10:44:07.446Z,100.00
2024-01-20T10:46:39.333Z,100.00
2024-01-20T10:49:10.511Z,100.00
2024-01-20T10:51:39.141Z,100.00
2024-01-20T10:54:10.124Z,100.00
2024-01-20T10:56:38.369Z,100.00
2024-01-20T10:59:13.614Z,100.00
2024-01-20T11:01:43.724Z,100.00
2024-01-20T11:04:12.202Z,100.00
2024-01-20T11:06:40.061Z,100.00
2024-01-20T11:09:09.141Z,100.00
2024-01-20T11:11:57.769Z,100.00
2024-01-20T11:14:31.125Z,100.00
2024-01-20T11:16:59.733Z,100.00
2024-01-20T11:19:31.285Z,100.00
2024-01-20T11:21:59.018Z,100.00
2024-01-20T11:24:40.401Z,100.00
2024-01-20T11:27:09.191Z,100.00
2024-01-20T11:29:38.407Z,100.00
2024-01-20T11:32:07.016Z,100.00
2024-01-20T11:34:35.229Z,100.00
2024-01-20T11:37:04.018Z,100.00
2024-01-20T11:39:32.181Z,100.00
2024-01-20T11:42:03.750Z,100.00
2024-01-20T11:44:32.532Z,100.00
2024-01-20T11:47:02.159Z,100.00
2024-01-20T11:49:29.884Z,98.09
2024-01-20T11:51:58.406Z,89.96
2024-01-20T11:54:26.179Z,100.00
2024-01-20T11:56:59.175Z,100.00
2024-01-20T11:59:27.310Z,99.36
2024-01-20T12:01:56.197Z,95.87
2024-01-20T12:04:25.716Z,97.05
2024-01-20T12:06:54.242Z,92.42
2024-01-20T12:09:22.067Z,93.78
2024-01-20T12:11:49.765Z,86.23
2024-01-20T12:14:19.198Z,77.19
2024-01-20T12:16:46.884Z,80.61
2024-01-20T12:19:15.268Z,84.78
2024-01-20T12:21:45.377Z,84.43
2024-01-20T12:24:14.256Z,84.04
2024-01-20T12:26:43.140Z,81.46
2024-01-20T12:29:10.794Z,89.10
2024-01-20T12:31:38.514Z,85.85
2024-01-20T12:34:06.291Z,91.79
2024-01-20T12:36:34.150Z,87.12
2024-01-20T12:39:04.231Z,79.80
2024-01-20T12:41:31.942Z,85.17
2024-01-20T12:44:00.233Z,77.80
2024-01-20T12:46:27.941Z,87.38
2024-01-20T12:48:56.274Z,77.04
2024-01-20T12:51:24.145Z,73.89
2024-01-20T12:53:51.819Z,72.86
2024-01-20T12:56:21.259Z,78.92
2024-01-20T12:58:48.925Z,73.41
2024-01-20T13:01:18.258Z,69.27
2024-01-20T13:03:46.167Z,86.30
2024-01-20T13:06:14.321Z,76.29
2024-01-20T13:08:41.982Z,82.21
2024-01-20T13:11:10.244Z,82.25
2024-01-20T13:13:41.598Z,84.30
2024-01-20T13:16:09.478Z,77.62
2024-01-20T13:18:37.393Z,82.82
2024-01-20T13:21:05.489Z,71.86
2024-01-20T13:23:33.161Z,64.61
2024-01-20T13:26:02.416Z,80.14
2024-01-20T13:28:31.891Z,82.11
2024-01-20T13:31:01.050Z,77.73
2024-01-20T13:33:29.395Z,83.87
2024-01-20T13:35:57.071Z,71.51
2024-01-20T13:38:25.303Z,79.20
2024-01-20T13:40:53.093Z,78.85
2024-01-20T13:43:21.284Z,63.83
2024-01-20T13:45:49.053Z,67.42
2024-01-20T13:48:18.579Z,78.78
2024-01-20T13:50:46.370Z,72.13
2024-01-20T13:53:14.296Z,68.17
2024-01-20T13:55:42.006Z,82.57
2024-01-20T13:58:10.030Z,67.97
2024-01-20T14:00:38.419Z,77.39
2024-01-20T14:03:06.525Z,68.81
2024-01-20T14:08:24.309Z,68.59
2024-01-20T14:10:52.160Z,63.03
2024-01-20T14:13:20.318Z,64.59
2024-01-20T14:15:48.176Z,59.26
2024-01-20T14:18:15.951Z,60.84
2024-01-20T14:23:30.330Z,56.05
2024-01-20T14:25:58.133Z,56.50
2024-01-20T14:28:26.479Z,62.76
2024-01-20T14:30:54.193Z,61.20
2024-01-20T14:33:22.502Z,60.16
2024-01-20T14:35:50.349Z,58.97
2024-01-20T14:38:18.368Z,52.87
2024-01-20T14:40:47.404Z,59.86
2024-01-20T14:43:15.350Z,50.20
2024-01-20T14:45:43.104Z,56.69
2024-01-20T14:48:12.541Z,60.66
2024-01-20T14:50:40.326Z,56.71
2024-01-20T14:53:08.373Z,47.88
2024-01-20T14:55:36.316Z,47.90
2024-01-20T14:58:06.373Z,46.57
2024-01-20T15:00:34.053Z,46.90
2024-01-20T15:03:02.481Z,55.28
2024-01-20T15:05:30.293Z,48.81
2024-01-20T15:07:58.398Z,51.63
2024-01-20T15:10:26.029Z,54.08
2024-01-20T15:12:54.418Z,49.47
2024-01-20T15:15:23.555Z,51.31
2024-01-20T15:17:51.442Z,57.10
2024-01-20T15:20:22.097Z,51.82
2024-01-20T15:22:51.397Z,52.97
2024-01-20T15:25:19.712Z,50.31
2024-01-20T15:27:49.579Z,51.83
2024-01-20T15:30:17.395Z,55.04
2024-01-20T15:32:46.543Z,52.79
2024-01-20T15:35:14.369Z,55.18
2024-01-20T15:37:42.037Z,54.83
2024-01-20T15:40:10.682Z,54.69
2024-01-20T15:42:38.492Z,52.51
2024-01-20T15:45:07.222Z,52.38
2024-01-20T15:47:34.922Z,54.60
2024-01-20T15:50:05.470Z,56.35
2024-01-20T15:52:33.260Z,56.99
2024-01-20T15:55:01.452Z,55.49
2024-01-20T15:57:29.132Z,54.34
2024-01-20T15:59:57.453Z,51.20
2024-01-20T16:02:25.715Z,54.14
2024-01-20T16:04:53.440Z,51.28
2024-01-20T16:07:22.697Z,47.71
2024-01-20T16:09:50.520Z,47.35
2024-01-20T16:12:18.319Z,47.27
2024-01-20T16:14:46.465Z,43.72
2024-01-20T16:17:14.151Z,45.64
2024-01-20T16:19:42.533Z,44.63
2024-01-20T16:22:10.220Z,43.21
2024-01-20T16:24:39.429Z,42.71
2024-01-20T16:27:07.475Z,44.25
2024-01-20T16:29:35.195Z,46.71
2024-01-20T16:32:03.316Z,47.00
2024-01-20T16:34:31.125Z,47.96
2024-01-20T16:36:59.495Z,49.83
2024-01-20T16:39:27.186Z,49.02
2024-01-20T16:41:56.935Z,48.71
2024-01-20T16:44:25.486Z,50.54
2024-01-20T16:46:53.847Z,48.84
2024-01-20T16:49:22.639Z,48.37
2024-01-20T16:51:50.439Z,49.88
2024-01-20T16:54:18.569Z,49.34
2024-01-20T16:56:46.268Z,45.62
2024-01-20T16:59:15.493Z,47.82
2024-01-20T17:01:43.188Z,47.21
2024-01-20T17:04:11.858Z,47.11
2024-01-20T17:06:39.654Z,44.46
2024-01-20T17:09:07.548Z,44.32
2024-01-20T17:11:35.237Z,42.94
2024-01-20T17:14:05.542Z,44.42
2024-01-20T17:16:35.247Z,44.87
2024-01-20T17:19:05.584Z,44.16
2024-01-20T17:21:34.380Z,44.50
2024-01-20T17:24:02.671Z,41.06
2024-01-20T17:26:31.119Z,42.94
2024-01-20T17:28:59.533Z,42.73
2024-01-20T17:31:29.793Z,44.31
2024-01-20T17:33:59.657Z,44.98
2024-01-20T17:36:27.407Z,43.94
2024-01-20T17:38:57.552Z,42.45
2024-01-20T17:41:25.261Z,45.08
2024-01-20T17:43:53.560Z,44.17
2024-01-20T17:46:21.190Z,45.28
2024-01-20T17:48:49.697Z,46.31
2024-01-20T17:51:18.936Z,47.53
2024-01-20T17:53:47.563Z,46.16
2024-01-20T17:56:15.346Z,45.83
2024-01-20T17:58:43.576Z,46.83
2024-01-20T18:01:18.835Z,47.07
2024-01-20T18:03:47.663Z,44.15
2024-01-20T18:06:16.382Z,44.79
2024-01-20T18:08:46.570Z,42.72
2024-01-20T18:11:14.305Z,44.12
2024-01-20T18:13:42.565Z,44.37
2024-01-20T18:16:10.305Z,43.84
2024-01-20T18:18:38.186Z,44.23
2024-01-20T18:21:06.643Z,46.61
2024-01-20T18:23:34.330Z,46.29
2024-01-20T18:26:03.326Z,46.02
2024-01-20T18:28:31.600Z,44.54
2024-01-20T18:31:00.682Z,43.81
2024-01-20T18:33:29.641Z,44.39
2024-01-20T18:35:57.475Z,44.40
2024-01-20T18:38:25.609Z,45.49
2024-01-20T18:40:53.301Z,45.88
2024-01-20T18:43:22.593Z,45.60
2024-01-20T18:45:50.233Z,46.02
2024-01-20T18:48:18.731Z,46.37
2024-01-20T18:50:46.747Z,45.75
2024-01-20T18:53:14.610Z,46.46
2024-01-20T18:55:42.384Z,45.65
2024-01-20T18:58:12.622Z,45.07
2024-01-20T19:00:42.109Z,44.22
2024-01-20T19:03:10.968Z,45.83
2024-01-20T19:05:39.377Z,45.06
2024-01-20T19:08:07.635Z,44.20
2024-01-20T19:10:35.242Z,44.20
2024-01-20T19:13:03.637Z,43.32
2024-01-20T19:15:31.555Z,46.00
2024-01-20T19:18:01.758Z,45.06
2024-01-20T19:20:30.216Z,44.45
2024-01-20T19:22:58.809Z,43.51
2024-01-20T19:25:26.955Z,43.34
2024-01-20T19:27:56.418Z,42.84
2024-01-20T19:30:25.379Z,44.28
2024-01-20T19:32:53.215Z,43.03
2024-01-20T19:35:23.677Z,41.14
2024-01-20T19:37:51.405Z,41.43
2024-01-20T19:40:19.409Z,41.65
2024-01-20T19:42:47.700Z,42.53
2024-01-20T19:45:38.459Z,44.16
2024-01-20T19:48:04.806Z,42.22
2024-01-20T19:50:33.985Z,42.79
2024-01-20T19:53:02.694Z,40.73
2024-01-20T19:55:30.568Z,39.75
2024-01-20T19:57:58.745Z,40.37
2024-01-20T20:00:26.506Z,40.49
2024-01-20T20:03:00.791Z,41.20
2024-01-20T20:05:28.491Z,42.94
2024-01-20T20:07:57.703Z,42.96
2024-01-20T20:10:28.163Z,42.13
2024-01-20T20:12:56.714Z,40.28
2024-01-20T20:15:24.525Z,42.06
2024-01-20T20:17:52.263Z,41.25
2024-01-20T20:20:24.717Z,40.50
2024-01-20T20:22:52.509Z,40.34
2024-01-20T20:25:21.726Z,40.46
2024-01-20T20:27:49.502Z,41.24
2024-01-20T20:30:17.921Z,42.21
2024-01-20T20:32:46.606Z,40.09
2024-01-20T20:35:15.744Z,39.68
2024-01-20T20:37:43.417Z,40.59
2024-01-20T20:40:12.737Z,40.16
2024-01-20T20:42:41.843Z,40.31
2024-01-20T20:45:10.757Z,42.16
2024-01-20T20:47:38.557Z,41.47
2024-01-20T20:50:07.884Z,40.93
2024-01-20T20:52:35.743Z,40.40
2024-01-20T20:55:03.427Z,39.89
2024-01-20T20:57:42.879Z,41.29
2024-01-20T21:00:15.981Z,42.57
2024-01-20T21:02:45.583Z,40.83
2024-01-20T21:05:18.060Z,40.65
2024-01-20T21:07:46.171Z,40.26
2024-01-20T21:10:15.554Z,39.84
2024-01-20T21:12:45.870Z,40.82
2024-01-20T21:15:14.130Z,41.65
2024-01-20T21:17:42.897Z,41.55
2024-01-20T21:20:11.735Z,43.75
2024-01-20T21:22:39.808Z,40.51
2024-01-20T21:25:08.993Z,41.76
2024-01-20T21:27:36.671Z,41.18
2024-01-20T21:30:06.811Z,38.94
2024-01-20T21:32:34.528Z,41.29
2024-01-20T21:35:02.908Z,41.20
2024-01-20T21:37:30.788Z,40.63
2024-01-20T21:39:58.805Z,38.06
2024-01-20T21:42:26.478Z,39.57
2024-01-20T21:44:57.949Z,40.11
2024-01-20T21:47:48.890Z,38.05
2024-01-20T21:50:16.693Z,40.35
2024-01-20T21:52:44.796Z,38.44
2024-01-20T21:55:12.480Z,38.02
2024-01-20T21:57:42.940Z,39.05
2024-01-20T22:00:11.484Z,40.34
2024-01-20T22:02:39.924Z,39.87
2024-01-20T22:05:09.472Z,38.01
2024-01-20T22:07:36.853Z,39.58
2024-01-20T22:10:06.000Z,40.79
2024-01-20T22:12:33.933Z,39.96
2024-01-20T22:15:01.835Z,39.82
2024-01-20T22:17:29.507Z,39.94
2024-01-20T22:19:57.726Z,39.63
2024-01-20T22:22:27.845Z,39.13
2024-01-20T22:24:55.552Z,37.38
2024-01-20T22:27:23.891Z,38.75
2024-01-20T22:29:51.574Z,38.45
2024-01-20T22:32:19.255Z,40.25
2024-01-20T22:34:47.926Z,38.92
2024-01-20T22:37:15.720Z,39.58
2024-01-20T22:39:44.943Z,40.40
2024-01-20T22:42:12.691Z,40.18
2024-01-20T22:44:40.326Z,40.72
2024-01-20T22:47:08.183Z,39.15
2024-01-20T22:49:36.920Z,39.40
2024-01-20T22:52:05.853Z,38.86
2024-01-20T22:54:34.897Z,39.99
2024-01-20T22:57:05.854Z,40.50
2024-01-20T22:59:33.888Z,40.69
2024-01-20T23:02:01.589Z,39.47
2024-01-20T23:04:29.647Z,40.30
2024-01-20T23:06:57.923Z,39.11
2024-01-20T23:09:27.393Z,40.65
2024-01-20T23:11:55.910Z,39.53
2024-01-20T23:14:25.242Z,37.88
2024-01-20T23:16:53.889Z,36.35
2024-01-20T23:19:21.635Z,36.77
2024-01-20T23:21:49.327Z,36.70
2024-01-20T23:24:17.975Z,37.10
2024-01-20T23:26:46.064Z,36.95
2024-01-20T23:29:13.710Z,35.73
2024-01-20T23:31:42.909Z,36.62
2024-01-20T23:34:11.273Z,36.41
2024-01-20T23:36:39.125Z,36.33
2024-01-20T23:39:16.954Z,35.13
2024-01-20T23:41:44.623Z,37.07
2024-01-20T23:44:12.319Z,37.50
2024-01-20T23:46:40.981Z,39.19
2024-01-20T23:49:11.631Z,37.96
2024-01-20T23:51:39.974Z,38.30
2024-01-20T23:54:07.720Z,37.87
2024-01-20T23:56:35.942Z,38.03
2024-01-20T23:59:04.027Z,37.42
